sensor_id;sensor_type;location;lat;lon;timestamp;P1;durP1;ratioP1;P2;durP2;ratioP2
20036;SDS011;10179;42.640;23.312;2022-08-07T00:00:51;5.68;;;3.83;;
20036;SDS011;10179;42.640;23.312;2022-08-07T00:03:17;5.93;;;3.95;;
20036;SDS011;10179;42.640;23.312;2022-08-07T00:05:42;6.15;;;4.25;;
20036;SDS011;10179;42.640;23.312;2022-08-07T00:08:08;6.30;;;3.90;;
20036;SDS011;10179;42.640;23.312;2022-08-07T00:10:33;4.65;;;3.78;;
20036;SDS011;10179;42.640;23.312;2022-08-07T00:13:02;7.90;;;4.07;;
20036;SDS011;10179;42.640;23.312;2022-08-07T00:15:30;5.78;;;4.20;;
20036;SDS011;10179;42.640;23.312;2022-08-07T00:17:57;6.55;;;3.80;;
20036;SDS011;10179;42.640;23.312;2022-08-07T00:20:22;5.53;;;4.35;;
20036;SDS011;10179;42.640;23.312;2022-08-07T00:22:48;5.85;;;3.72;;
20036;SDS011;10179;42.640;23.312;2022-08-07T00:25:14;8.20;;;4.40;;
20036;SDS011;10179;42.640;23.312;2022-08-07T00:27:39;4.80;;;3.72;;
20036;SDS011;10179;42.640;23.312;2022-08-07T00:30:05;4.88;;;3.90;;
20036;SDS011;10179;42.640;23.312;2022-08-07T00:32:31;9.05;;;4.78;;
20036;SDS011;10179;42.640;23.312;2022-08-07T00:34:56;8.93;;;4.50;;
20036;SDS011;10179;42.640;23.312;2022-08-07T00:37:21;7.78;;;4.85;;
20036;SDS011;10179;42.640;23.312;2022-08-07T00:39:48;5.95;;;4.60;;
20036;SDS011;10179;42.640;23.312;2022-08-07T00:42:14;6.40;;;4.57;;
20036;SDS011;10179;42.640;23.312;2022-08-07T00:44:40;6.45;;;4.63;;
20036;SDS011;10179;42.640;23.312;2022-08-07T00:47:05;6.35;;;4.07;;
20036;SDS011;10179;42.640;23.312;2022-08-07T00:49:32;6.75;;;4.50;;
20036;SDS011;10179;42.640;23.312;2022-08-07T00:51:58;9.05;;;4.55;;
20036;SDS011;10179;42.640;23.312;2022-08-07T00:54:24;5.15;;;4.35;;
20036;SDS011;10179;42.640;23.312;2022-08-07T00:56:49;6.35;;;4.25;;
20036;SDS011;10179;42.640;23.312;2022-08-07T00:59:16;5.18;;;4.32;;
20036;SDS011;10179;42.640;23.312;2022-08-07T01:01:42;6.38;;;4.18;;
20036;SDS011;10179;42.640;23.312;2022-08-07T01:04:09;7.30;;;4.30;;
20036;SDS011;10179;42.640;23.312;2022-08-07T01:06:34;5.72;;;4.20;;
20036;SDS011;10179;42.640;23.312;2022-08-07T01:09:00;4.57;;;3.97;;
20036;SDS011;10179;42.640;23.312;2022-08-07T01:11:29;7.50;;;4.07;;
20036;SDS011;10179;42.640;23.312;2022-08-07T01:13:55;5.38;;;4.05;;
20036;SDS011;10179;42.640;23.312;2022-08-07T01:16:21;7.97;;;4.25;;
20036;SDS011;10179;42.640;23.312;2022-08-07T01:18:46;6.32;;;4.47;;
20036;SDS011;10179;42.640;23.312;2022-08-07T01:21:12;7.85;;;4.32;;
20036;SDS011;10179;42.640;23.312;2022-08-07T01:23:40;5.35;;;4.30;;
20036;SDS011;10179;42.640;23.312;2022-08-07T01:26:07;8.32;;;4.63;;
20036;SDS011;10179;42.640;23.312;2022-08-07T01:28:34;9.25;;;4.28;;
20036;SDS011;10179;42.640;23.312;2022-08-07T01:31:01;9.60;;;4.90;;
20036;SDS011;10179;42.640;23.312;2022-08-07T01:33:26;9.93;;;4.50;;
20036;SDS011;10179;42.640;23.312;2022-08-07T01:35:53;6.82;;;5.13;;
20036;SDS011;10179;42.640;23.312;2022-08-07T01:38:19;6.35;;;4.78;;
20036;SDS011;10179;42.640;23.312;2022-08-07T01:40:46;6.40;;;4.32;;
20036;SDS011;10179;42.640;23.312;2022-08-07T01:43:13;6.22;;;5.30;;
20036;SDS011;10179;42.640;23.312;2022-08-07T01:45:40;9.15;;;4.60;;
20036;SDS011;10179;42.640;23.312;2022-08-07T01:48:06;6.72;;;5.22;;
20036;SDS011;10179;42.640;23.312;2022-08-07T01:50:31;9.18;;;5.32;;
20036;SDS011;10179;42.640;23.312;2022-08-07T01:53:01;6.25;;;4.95;;
20036;SDS011;10179;42.640;23.312;2022-08-07T01:55:28;7.05;;;5.35;;
20036;SDS011;10179;42.640;23.312;2022-08-07T01:57:59;6.25;;;4.97;;
20036;SDS011;10179;42.640;23.312;2022-08-07T02:00:27;6.95;;;5.32;;
20036;SDS011;10179;42.640;23.312;2022-08-07T02:02:57;8.35;;;5.68;;
20036;SDS011;10179;42.640;23.312;2022-08-07T02:05:26;7.45;;;5.15;;
20036;SDS011;10179;42.640;23.312;2022-08-07T02:08:07;7.88;;;5.75;;
20036;SDS011;10179;42.640;23.312;2022-08-07T02:10:36;9.52;;;6.13;;
20036;SDS011;10179;42.640;23.312;2022-08-07T02:13:03;8.50;;;5.75;;
20036;SDS011;10179;42.640;23.312;2022-08-07T02:15:30;7.53;;;5.75;;
20036;SDS011;10179;42.640;23.312;2022-08-07T02:17:56;9.55;;;5.55;;
20036;SDS011;10179;42.640;23.312;2022-08-07T02:20:24;10.13;;;6.28;;
20036;SDS011;10179;42.640;23.312;2022-08-07T02:22:52;11.35;;;6.28;;
20036;SDS011;10179;42.640;23.312;2022-08-07T02:25:21;8.77;;;5.93;;
20036;SDS011;10179;42.640;23.312;2022-08-07T02:27:49;8.45;;;6.25;;
20036;SDS011;10179;42.640;23.312;2022-08-07T02:30:15;8.43;;;5.65;;
20036;SDS011;10179;42.640;23.312;2022-08-07T02:32:41;7.65;;;5.65;;
20036;SDS011;10179;42.640;23.312;2022-08-07T02:35:08;7.50;;;5.82;;
20036;SDS011;10179;42.640;23.312;2022-08-07T02:37:36;10.57;;;6.10;;
20036;SDS011;10179;42.640;23.312;2022-08-07T02:40:04;9.77;;;6.07;;
20036;SDS011;10179;42.640;23.312;2022-08-07T02:42:32;8.18;;;5.95;;
20036;SDS011;10179;42.640;23.312;2022-08-07T02:44:59;8.27;;;6.40;;
20036;SDS011;10179;42.640;23.312;2022-08-07T02:47:26;6.05;;;5.32;;
20036;SDS011;10179;42.640;23.312;2022-08-07T02:49:52;6.43;;;5.28;;
20036;SDS011;10179;42.640;23.312;2022-08-07T02:52:20;8.07;;;5.38;;
20036;SDS011;10179;42.640;23.312;2022-08-07T02:54:50;6.65;;;4.97;;
20036;SDS011;10179;42.640;23.312;2022-08-07T02:57:17;6.32;;;5.07;;
20036;SDS011;10179;42.640;23.312;2022-08-07T02:59:47;8.80;;;5.43;;
20036;SDS011;10179;42.640;23.312;2022-08-07T03:02:14;7.28;;;4.85;;
20036;SDS011;10179;42.640;23.312;2022-08-07T03:04:43;7.43;;;5.43;;
20036;SDS011;10179;42.640;23.312;2022-08-07T03:07:10;8.23;;;5.80;;
20036;SDS011;10179;42.640;23.312;2022-08-07T03:09:37;6.90;;;5.35;;
20036;SDS011;10179;42.640;23.312;2022-08-07T03:12:03;6.43;;;5.38;;
20036;SDS011;10179;42.640;23.312;2022-08-07T03:14:32;8.90;;;5.35;;
20036;SDS011;10179;42.640;23.312;2022-08-07T03:17:00;6.40;;;5.15;;
20036;SDS011;10179;42.640;23.312;2022-08-07T03:19:27;7.22;;;5.60;;
20036;SDS011;10179;42.640;23.312;2022-08-07T03:21:53;7.68;;;4.95;;
20036;SDS011;10179;42.640;23.312;2022-08-07T03:24:19;6.03;;;5.00;;
20036;SDS011;10179;42.640;23.312;2022-08-07T03:26:45;6.80;;;5.10;;
20036;SDS011;10179;42.640;23.312;2022-08-07T03:29:16;6.88;;;5.25;;
20036;SDS011;10179;42.640;23.312;2022-08-07T03:31:42;6.07;;;4.47;;
20036;SDS011;10179;42.640;23.312;2022-08-07T03:34:10;6.30;;;4.82;;
20036;SDS011;10179;42.640;23.312;2022-08-07T03:36:38;5.15;;;4.28;;
20036;SDS011;10179;42.640;23.312;2022-08-07T03:39:06;5.10;;;4.47;;
20036;SDS011;10179;42.640;23.312;2022-08-07T03:41:34;6.40;;;4.10;;
20036;SDS011;10179;42.640;23.312;2022-08-07T03:44:01;6.05;;;4.93;;
20036;SDS011;10179;42.640;23.312;2022-08-07T03:46:27;9.32;;;6.05;;
20036;SDS011;10179;42.640;23.312;2022-08-07T03:48:54;7.65;;;6.10;;
20036;SDS011;10179;42.640;23.312;2022-08-07T03:51:20;7.32;;;6.22;;
20036;SDS011;10179;42.640;23.312;2022-08-07T03:53:45;7.65;;;5.45;;
20036;SDS011;10179;42.640;23.312;2022-08-07T03:56:13;9.40;;;6.22;;
20036;SDS011;10179;42.640;23.312;2022-08-07T03:58:42;7.60;;;6.00;;
20036;SDS011;10179;42.640;23.312;2022-08-07T04:01:09;8.00;;;6.10;;
20036;SDS011;10179;42.640;23.312;2022-08-07T04:03:35;9.35;;;6.60;;
20036;SDS011;10179;42.640;23.312;2022-08-07T04:06:00;10.20;;;6.20;;
20036;SDS011;10179;42.640;23.312;2022-08-07T04:08:26;8.40;;;6.15;;
20036;SDS011;10179;42.640;23.312;2022-08-07T04:10:52;8.15;;;6.28;;
20036;SDS011;10179;42.640;23.312;2022-08-07T04:13:20;7.32;;;6.00;;
20036;SDS011;10179;42.640;23.312;2022-08-07T04:15:47;7.95;;;5.90;;
20036;SDS011;10179;42.640;23.312;2022-08-07T04:18:13;8.07;;;6.60;;
20036;SDS011;10179;42.640;23.312;2022-08-07T04:20:39;7.82;;;6.35;;
20036;SDS011;10179;42.640;23.312;2022-08-07T04:23:06;10.13;;;7.13;;
20036;SDS011;10179;42.640;23.312;2022-08-07T04:25:34;8.15;;;5.97;;
20036;SDS011;10179;42.640;23.312;2022-08-07T04:28:03;7.30;;;5.50;;
20036;SDS011;10179;42.640;23.312;2022-08-07T04:30:31;7.68;;;5.68;;
20036;SDS011;10179;42.640;23.312;2022-08-07T04:32:57;8.07;;;6.10;;
20036;SDS011;10179;42.640;23.312;2022-08-07T04:35:23;8.90;;;5.78;;
20036;SDS011;10179;42.640;23.312;2022-08-07T04:37:49;8.60;;;5.65;;
20036;SDS011;10179;42.640;23.312;2022-08-07T04:40:14;8.32;;;5.40;;
20036;SDS011;10179;42.640;23.312;2022-08-07T04:42:40;7.20;;;5.43;;
20036;SDS011;10179;42.640;23.312;2022-08-07T04:45:06;8.85;;;5.93;;
20036;SDS011;10179;42.640;23.312;2022-08-07T04:47:42;8.80;;;5.43;;
20036;SDS011;10179;42.640;23.312;2022-08-07T04:50:19;11.40;;;6.03;;
20036;SDS011;10179;42.640;23.312;2022-08-07T04:55:29;7.40;;;5.40;;
20036;SDS011;10179;42.640;23.312;2022-08-07T04:58:03;9.63;;;5.93;;
20036;SDS011;10179;42.640;23.312;2022-08-07T05:00:40;7.93;;;5.15;;
20036;SDS011;10179;42.640;23.312;2022-08-07T05:03:10;6.95;;;5.55;;
20036;SDS011;10179;42.640;23.312;2022-08-07T05:05:43;9.20;;;5.80;;
20036;SDS011;10179;42.640;23.312;2022-08-07T05:11:13;7.45;;;5.68;;
20036;SDS011;10179;42.640;23.312;2022-08-07T05:13:48;6.53;;;5.13;;
20036;SDS011;10179;42.640;23.312;2022-08-07T05:16:18;6.13;;;4.55;;
20036;SDS011;10179;42.640;23.312;2022-08-07T05:21:47;7.90;;;5.03;;
20036;SDS011;10179;42.640;23.312;2022-08-07T05:24:16;7.45;;;5.45;;
20036;SDS011;10179;42.640;23.312;2022-08-07T05:26:45;9.15;;;5.70;;
20036;SDS011;10179;42.640;23.312;2022-08-07T05:29:13;8.57;;;5.75;;
20036;SDS011;10179;42.640;23.312;2022-08-07T05:31:40;6.43;;;5.22;;
20036;SDS011;10179;42.640;23.312;2022-08-07T05:34:12;8.25;;;5.95;;
20036;SDS011;10179;42.640;23.312;2022-08-07T05:36:41;7.97;;;5.65;;
20036;SDS011;10179;42.640;23.312;2022-08-07T05:39:09;6.35;;;5.38;;
20036;SDS011;10179;42.640;23.312;2022-08-07T05:41:36;8.38;;;5.45;;
20036;SDS011;10179;42.640;23.312;2022-08-07T05:44:03;6.85;;;5.10;;
20036;SDS011;10179;42.640;23.312;2022-08-07T05:46:29;6.55;;;5.07;;
20036;SDS011;10179;42.640;23.312;2022-08-07T05:48:55;5.78;;;4.65;;
20036;SDS011;10179;42.640;23.312;2022-08-07T05:51:22;6.93;;;4.75;;
20036;SDS011;10179;42.640;23.312;2022-08-07T05:53:48;7.40;;;5.18;;
20036;SDS011;10179;42.640;23.312;2022-08-07T05:56:14;8.52;;;5.05;;
20036;SDS011;10179;42.640;23.312;2022-08-07T05:58:41;5.43;;;4.65;;
20036;SDS011;10179;42.640;23.312;2022-08-07T06:01:11;8.10;;;4.90;;
20036;SDS011;10179;42.640;23.312;2022-08-07T06:03:38;6.10;;;4.63;;
20036;SDS011;10179;42.640;23.312;2022-08-07T06:06:07;7.15;;;5.28;;
20036;SDS011;10179;42.640;23.312;2022-08-07T06:08:35;6.40;;;4.75;;
20036;SDS011;10179;42.640;23.312;2022-08-07T06:11:01;7.93;;;5.28;;
20036;SDS011;10179;42.640;23.312;2022-08-07T06:13:26;7.60;;;5.13;;
20036;SDS011;10179;42.640;23.312;2022-08-07T06:15:52;6.82;;;5.03;;
20036;SDS011;10179;42.640;23.312;2022-08-07T06:18:19;7.85;;;5.53;;
20036;SDS011;10179;42.640;23.312;2022-08-07T06:20:46;6.45;;;5.15;;
20036;SDS011;10179;42.640;23.312;2022-08-07T06:23:12;7.95;;;5.22;;
20036;SDS011;10179;42.640;23.312;2022-08-07T06:25:38;6.70;;;4.90;;
20036;SDS011;10179;42.640;23.312;2022-08-07T06:28:06;8.45;;;7.00;;
20036;SDS011;10179;42.640;23.312;2022-08-07T06:30:34;8.10;;;5.32;;
20036;SDS011;10179;42.640;23.312;2022-08-07T06:33:01;7.88;;;5.15;;
20036;SDS011;10179;42.640;23.312;2022-08-07T06:35:27;8.00;;;4.47;;
20036;SDS011;10179;42.640;23.312;2022-08-07T06:37:53;8.55;;;4.75;;
20036;SDS011;10179;42.640;23.312;2022-08-07T06:40:20;7.00;;;4.68;;
20036;SDS011;10179;42.640;23.312;2022-08-07T06:42:45;6.32;;;4.30;;
20036;SDS011;10179;42.640;23.312;2022-08-07T06:45:14;6.95;;;4.70;;
20036;SDS011;10179;42.640;23.312;2022-08-07T06:47:42;5.80;;;4.55;;
20036;SDS011;10179;42.640;23.312;2022-08-07T06:50:08;7.68;;;4.57;;
20036;SDS011;10179;42.640;23.312;2022-08-07T06:52:35;7.20;;;4.70;;
20036;SDS011;10179;42.640;23.312;2022-08-07T06:55:13;5.63;;;4.43;;
20036;SDS011;10179;42.640;23.312;2022-08-07T06:57:42;5.18;;;4.68;;
20036;SDS011;10179;42.640;23.312;2022-08-07T07:00:09;6.57;;;5.03;;
20036;SDS011;10179;42.640;23.312;2022-08-07T07:02:35;6.18;;;4.40;;
20036;SDS011;10179;42.640;23.312;2022-08-07T07:05:02;11.43;;;4.65;;
20036;SDS011;10179;42.640;23.312;2022-08-07T07:07:28;5.88;;;4.72;;
20036;SDS011;10179;42.640;23.312;2022-08-07T07:09:53;6.57;;;4.93;;
20036;SDS011;10179;42.640;23.312;2022-08-07T07:15:03;6.28;;;4.63;;
20036;SDS011;10179;42.640;23.312;2022-08-07T07:17:38;7.47;;;5.55;;
20036;SDS011;10179;42.640;23.312;2022-08-07T07:20:11;6.25;;;5.10;;
20036;SDS011;10179;42.640;23.312;2022-08-07T07:22:40;6.78;;;5.20;;
20036;SDS011;10179;42.640;23.312;2022-08-07T07:25:07;7.47;;;5.80;;
20036;SDS011;10179;42.640;23.312;2022-08-07T07:27:36;7.18;;;5.20;;
20036;SDS011;10179;42.640;23.312;2022-08-07T07:30:07;6.85;;;5.10;;
20036;SDS011;10179;42.640;23.312;2022-08-07T07:32:34;5.80;;;5.18;;
20036;SDS011;10179;42.640;23.312;2022-08-07T07:35:07;6.40;;;5.23;;
20036;SDS011;10179;42.640;23.312;2022-08-07T07:37:35;6.72;;;4.95;;
20036;SDS011;10179;42.640;23.312;2022-08-07T07:40:02;7.90;;;5.35;;
20036;SDS011;10179;42.640;23.312;2022-08-07T07:42:30;9.30;;;5.25;;
20036;SDS011;10179;42.640;23.312;2022-08-07T07:44:58;6.32;;;5.35;;
20036;SDS011;10179;42.640;23.312;2022-08-07T07:47:26;6.97;;;5.82;;
20036;SDS011;10179;42.640;23.312;2022-08-07T07:49:53;8.50;;;5.78;;
20036;SDS011;10179;42.640;23.312;2022-08-07T07:52:20;7.82;;;5.95;;
20036;SDS011;10179;42.640;23.312;2022-08-07T07:54:47;5.72;;;5.13;;
20036;SDS011;10179;42.640;23.312;2022-08-07T07:57:13;7.78;;;5.35;;
20036;SDS011;10179;42.640;23.312;2022-08-07T07:59:42;10.15;;;6.00;;
20036;SDS011;10179;42.640;23.312;2022-08-07T08:02:09;11.35;;;6.88;;
20036;SDS011;10179;42.640;23.312;2022-08-07T08:04:37;11.95;;;8.32;;
20036;SDS011;10179;42.640;23.312;2022-08-07T08:07:05;11.88;;;9.00;;
20036;SDS011;10179;42.640;23.312;2022-08-07T08:09:32;11.85;;;7.97;;
20036;SDS011;10179;42.640;23.312;2022-08-07T08:12:00;7.75;;;6.15;;
20036;SDS011;10179;42.640;23.312;2022-08-07T08:14:28;11.57;;;6.68;;
20036;SDS011;10179;42.640;23.312;2022-08-07T08:16:54;11.15;;;6.95;;
20036;SDS011;10179;42.640;23.312;2022-08-07T08:19:23;10.50;;;7.70;;
20036;SDS011;10179;42.640;23.312;2022-08-07T08:21:51;9.05;;;7.47;;
20036;SDS011;10179;42.640;23.312;2022-08-07T08:24:46;10.18;;;8.10;;
20036;SDS011;10179;42.640;23.312;2022-08-07T08:27:35;9.85;;;7.45;;
20036;SDS011;10179;42.640;23.312;2022-08-07T08:30:05;8.93;;;7.20;;
20036;SDS011;10179;42.640;23.312;2022-08-07T08:32:35;7.60;;;6.00;;
20036;SDS011;10179;42.640;23.312;2022-08-07T08:35:05;7.65;;;6.10;;
20036;SDS011;10179;42.640;23.312;2022-08-07T08:37:36;9.18;;;6.00;;
20036;SDS011;10179;42.640;23.312;2022-08-07T08:40:06;7.60;;;5.70;;
20036;SDS011;10179;42.640;23.312;2022-08-07T08:45:28;7.80;;;5.85;;
20036;SDS011;10179;42.640;23.312;2022-08-07T08:48:08;8.00;;;5.55;;
20036;SDS011;10179;42.640;23.312;2022-08-07T08:50:47;10.15;;;5.75;;
20036;SDS011;10179;42.640;23.312;2022-08-07T08:53:32;7.53;;;5.80;;
20036;SDS011;10179;42.640;23.312;2022-08-07T08:56:05;7.38;;;5.60;;
20036;SDS011;10179;42.640;23.312;2022-08-07T09:01:50;6.82;;;5.72;;
20036;SDS011;10179;42.640;23.312;2022-08-07T09:10:56;8.40;;;6.10;;
20036;SDS011;10179;42.640;23.312;2022-08-07T09:16:38;8.40;;;6.03;;
20036;SDS011;10179;42.640;23.312;2022-08-07T09:22:09;6.80;;;5.53;;
20036;SDS011;10179;42.640;23.312;2022-08-07T09:24:46;6.45;;;5.32;;
20036;SDS011;10179;42.640;23.312;2022-08-07T09:29:56;8.82;;;5.88;;
20036;SDS011;10179;42.640;23.312;2022-08-07T09:40:22;10.73;;;5.80;;
20036;SDS011;10179;42.640;23.312;2022-08-07T09:42:51;7.47;;;5.85;;
20036;SDS011;10179;42.640;23.312;2022-08-07T09:53:21;6.25;;;4.82;;
20036;SDS011;10179;42.640;23.312;2022-08-07T09:58:42;6.00;;;4.50;;
20036;SDS011;10179;42.640;23.312;2022-08-07T10:12:16;8.32;;;6.35;;
20036;SDS011;10179;42.640;23.312;2022-08-07T10:31:14;5.03;;;4.15;;
20036;SDS011;10179;42.640;23.312;2022-08-07T10:45:36;6.22;;;4.60;;
20036;SDS011;10179;42.640;23.312;2022-08-07T10:51:29;5.20;;;4.47;;
20036;SDS011;10179;42.640;23.312;2022-08-07T10:54:06;6.18;;;4.43;;
20036;SDS011;10179;42.640;23.312;2022-08-07T10:56:48;5.68;;;4.60;;
20036;SDS011;10179;42.640;23.312;2022-08-07T11:05:17;7.45;;;4.38;;
20036;SDS011;10179;42.640;23.312;2022-08-07T11:11:06;5.63;;;4.57;;
20036;SDS011;10179;42.640;23.312;2022-08-07T11:16:16;6.68;;;4.10;;
20036;SDS011;10179;42.640;23.312;2022-08-07T11:19:13;5.78;;;5.07;;
20036;SDS011;10179;42.640;23.312;2022-08-07T11:30:09;5.63;;;4.88;;
20036;SDS011;10179;42.640;23.312;2022-08-07T11:32:39;8.13;;;5.50;;
20036;SDS011;10179;42.640;23.312;2022-08-07T11:35:19;6.00;;;4.93;;
20036;SDS011;10179;42.640;23.312;2022-08-07T11:40:26;5.85;;;4.82;;
20036;SDS011;10179;42.640;23.312;2022-08-07T11:50:48;5.72;;;4.25;;
20036;SDS011;10179;42.640;23.312;2022-08-07T11:53:37;8.55;;;5.35;;
20036;SDS011;10179;42.640;23.312;2022-08-07T12:04:41;7.18;;;5.60;;
20036;SDS011;10179;42.640;23.312;2022-08-07T12:09:58;6.53;;;5.10;;
20036;SDS011;10179;42.640;23.312;2022-08-07T12:15:06;6.67;;;5.33;;
20036;SDS011;10179;42.640;23.312;2022-08-07T12:17:53;8.10;;;5.53;;
20036;SDS011;10179;42.640;23.312;2022-08-07T12:20:37;7.15;;;5.85;;
20036;SDS011;10179;42.640;23.312;2022-08-07T12:25:59;7.82;;;5.28;;
20036;SDS011;10179;42.640;23.312;2022-08-07T12:31:20;6.32;;;4.90;;
20036;SDS011;10179;42.640;23.312;2022-08-07T12:34:07;6.15;;;4.80;;
20036;SDS011;10179;42.640;23.312;2022-08-07T12:36:33;7.43;;;5.30;;
20036;SDS011;10179;42.640;23.312;2022-08-07T12:39:01;7.05;;;4.88;;
20036;SDS011;10179;42.640;23.312;2022-08-07T12:41:29;8.15;;;5.30;;
20036;SDS011;10179;42.640;23.312;2022-08-07T12:43:57;5.68;;;4.97;;
20036;SDS011;10179;42.640;23.312;2022-08-07T12:52:00;7.30;;;4.40;;
20036;SDS011;10179;42.640;23.312;2022-08-07T12:54:45;5.30;;;4.40;;
20036;SDS011;10179;42.640;23.312;2022-08-07T12:57:12;4.13;;;3.45;;
20036;SDS011;10179;42.640;23.312;2022-08-07T12:59:41;5.85;;;3.88;;
20036;SDS011;10179;42.640;23.312;2022-08-07T13:08:15;7.82;;;4.65;;
20036;SDS011;10179;42.640;23.312;2022-08-07T13:13:56;6.90;;;4.95;;
20036;SDS011;10179;42.640;23.312;2022-08-07T13:19:25;5.95;;;4.85;;
20036;SDS011;10179;42.640;23.312;2022-08-07T13:24:48;6.60;;;4.05;;
20036;SDS011;10179;42.640;23.312;2022-08-07T13:27:25;6.32;;;5.10;;
20036;SDS011;10179;42.640;23.312;2022-08-07T13:32:49;6.68;;;4.60;;
20036;SDS011;10179;42.640;23.312;2022-08-07T13:38:26;5.93;;;4.57;;
20036;SDS011;10179;42.640;23.312;2022-08-07T13:41:07;7.43;;;5.10;;
20036;SDS011;10179;42.640;23.312;2022-08-07T13:43:43;6.75;;;5.07;;
20036;SDS011;10179;42.640;23.312;2022-08-07T13:46:11;8.77;;;5.95;;
20036;SDS011;10179;42.640;23.312;2022-08-07T13:48:38;7.03;;;4.90;;
20036;SDS011;10179;42.640;23.312;2022-08-07T13:51:08;7.78;;;4.97;;
20036;SDS011;10179;42.640;23.312;2022-08-07T13:53:39;5.80;;;4.88;;
20036;SDS011;10179;42.640;23.312;2022-08-07T13:56:09;5.60;;;4.82;;
20036;SDS011;10179;42.640;23.312;2022-08-07T13:58:40;8.40;;;5.05;;
20036;SDS011;10179;42.640;23.312;2022-08-07T14:01:26;8.07;;;5.10;;
20036;SDS011;10179;42.640;23.312;2022-08-07T14:03:55;9.25;;;5.05;;
20036;SDS011;10179;42.640;23.312;2022-08-07T14:06:22;5.90;;;5.10;;
20036;SDS011;10179;42.640;23.312;2022-08-07T14:08:55;5.65;;;4.85;;
20036;SDS011;10179;42.640;23.312;2022-08-07T14:11:21;6.22;;;4.80;;
20036;SDS011;10179;42.640;23.312;2022-08-07T14:13:53;10.45;;;5.43;;
20036;SDS011;10179;42.640;23.312;2022-08-07T14:16:24;8.98;;;5.20;;
20036;SDS011;10179;42.640;23.312;2022-08-07T14:18:53;5.80;;;5.03;;
20036;SDS011;10179;42.640;23.312;2022-08-07T14:21:23;6.57;;;5.25;;
20036;SDS011;10179;42.640;23.312;2022-08-07T14:24:01;10.13;;;4.93;;
20036;SDS011;10179;42.640;23.312;2022-08-07T14:26:38;7.32;;;5.30;;
20036;SDS011;10179;42.640;23.312;2022-08-07T14:29:08;6.95;;;5.38;;
20036;SDS011;10179;42.640;23.312;2022-08-07T14:31:37;8.23;;;5.30;;
20036;SDS011;10179;42.640;23.312;2022-08-07T14:34:04;7.28;;;5.20;;
20036;SDS011;10179;42.640;23.312;2022-08-07T14:36:31;6.15;;;5.40;;
20036;SDS011;10179;42.640;23.312;2022-08-07T14:39:01;6.15;;;4.97;;
20036;SDS011;10179;42.640;23.312;2022-08-07T14:41:28;8.55;;;5.18;;
20036;SDS011;10179;42.640;23.312;2022-08-07T14:43:57;10.80;;;4.97;;
20036;SDS011;10179;42.640;23.312;2022-08-07T14:46:25;7.55;;;5.10;;
20036;SDS011;10179;42.640;23.312;2022-08-07T14:48:52;7.30;;;5.35;;
20036;SDS011;10179;42.640;23.312;2022-08-07T14:51:21;7.32;;;4.88;;
20036;SDS011;10179;42.640;23.312;2022-08-07T14:53:52;6.88;;;4.78;;
20036;SDS011;10179;42.640;23.312;2022-08-07T14:56:21;6.13;;;5.03;;
20036;SDS011;10179;42.640;23.312;2022-08-07T14:58:50;7.43;;;5.30;;
20036;SDS011;10179;42.640;23.312;2022-08-07T15:01:18;8.82;;;4.85;;
20036;SDS011;10179;42.640;23.312;2022-08-07T15:03:50;6.28;;;4.30;;
20036;SDS011;10179;42.640;23.312;2022-08-07T15:06:20;5.07;;;4.03;;
20036;SDS011;10179;42.640;23.312;2022-08-07T15:11:17;5.88;;;4.85;;
20036;SDS011;10179;42.640;23.312;2022-08-07T15:13:53;8.23;;;4.40;;
20036;SDS011;10179;42.640;23.312;2022-08-07T15:16:33;8.73;;;5.03;;
20036;SDS011;10179;42.640;23.312;2022-08-07T15:19:03;5.60;;;4.75;;
20036;SDS011;10179;42.640;23.312;2022-08-07T15:21:32;8.23;;;5.50;;
20036;SDS011;10179;42.640;23.312;2022-08-07T15:24:02;7.63;;;5.38;;
20036;SDS011;10179;42.640;23.312;2022-08-07T15:26:34;6.72;;;5.13;;
20036;SDS011;10179;42.640;23.312;2022-08-07T15:29:02;5.80;;;4.85;;
20036;SDS011;10179;42.640;23.312;2022-08-07T15:31:31;7.30;;;5.43;;
20036;SDS011;10179;42.640;23.312;2022-08-07T15:34:00;5.57;;;4.88;;
20036;SDS011;10179;42.640;23.312;2022-08-07T15:36:28;6.05;;;4.95;;
20036;SDS011;10179;42.640;23.312;2022-08-07T15:38:56;7.78;;;4.80;;
20036;SDS011;10179;42.640;23.312;2022-08-07T15:41:31;6.50;;;5.03;;
20036;SDS011;10179;42.640;23.312;2022-08-07T15:44:05;6.03;;;5.00;;
20036;SDS011;10179;42.640;23.312;2022-08-07T15:46:36;6.68;;;4.88;;
20036;SDS011;10179;42.640;23.312;2022-08-07T15:49:04;7.18;;;5.22;;
20036;SDS011;10179;42.640;23.312;2022-08-07T15:51:31;6.40;;;4.95;;
20036;SDS011;10179;42.640;23.312;2022-08-07T15:54:00;7.18;;;5.20;;
20036;SDS011;10179;42.640;23.312;2022-08-07T15:56:31;7.07;;;5.55;;
20036;SDS011;10179;42.640;23.312;2022-08-07T15:59:00;7.68;;;5.30;;
20036;SDS011;10179;42.640;23.312;2022-08-07T16:01:33;8.70;;;5.30;;
20036;SDS011;10179;42.640;23.312;2022-08-07T16:04:02;10.30;;;5.50;;
20036;SDS011;10179;42.640;23.312;2022-08-07T16:06:34;9.90;;;5.25;;
20036;SDS011;10179;42.640;23.312;2022-08-07T16:09:25;7.35;;;5.55;;
20036;SDS011;10179;42.640;23.312;2022-08-07T16:12:02;10.27;;;5.25;;
20036;SDS011;10179;42.640;23.312;2022-08-07T16:20:30;8.73;;;5.82;;
20036;SDS011;10179;42.640;23.312;2022-08-07T16:31:54;6.35;;;5.25;;
20036;SDS011;10179;42.640;23.312;2022-08-07T16:45:29;7.05;;;5.60;;
20036;SDS011;10179;42.640;23.312;2022-08-07T16:59:23;7.32;;;5.82;;
20036;SDS011;10179;42.640;23.312;2022-08-07T17:07:50;7.78;;;5.72;;
20036;SDS011;10179;42.640;23.312;2022-08-07T17:10:32;6.53;;;5.80;;
20036;SDS011;10179;42.640;23.312;2022-08-07T17:18:36;8.52;;;6.30;;
20036;SDS011;10179;42.640;23.312;2022-08-07T17:21:12;7.72;;;6.10;;
20036;SDS011;10179;42.640;23.312;2022-08-07T17:24:26;8.65;;;6.03;;
20036;SDS011;10179;42.640;23.312;2022-08-07T17:32:51;9.07;;;5.70;;
20036;SDS011;10179;42.640;23.312;2022-08-07T17:35:34;7.47;;;5.13;;
20036;SDS011;10179;42.640;23.312;2022-08-07T17:40:55;8.82;;;4.70;;
20036;SDS011;10179;42.640;23.312;2022-08-07T17:43:32;7.32;;;5.03;;
20036;SDS011;10179;42.640;23.312;2022-08-07T17:48:38;8.03;;;5.23;;
20036;SDS011;10179;42.640;23.312;2022-08-07T17:51:33;6.40;;;4.90;;
20036;SDS011;10179;42.640;23.312;2022-08-07T17:54:07;6.60;;;5.35;;
20036;SDS011;10179;42.640;23.312;2022-08-07T17:56:46;5.95;;;4.72;;
20036;SDS011;10179;42.640;23.312;2022-08-07T17:59:21;7.40;;;4.78;;
20036;SDS011;10179;42.640;23.312;2022-08-07T18:01:54;6.80;;;5.93;;
20036;SDS011;10179;42.640;23.312;2022-08-07T18:10:02;6.15;;;5.55;;
20036;SDS011;10179;42.640;23.312;2022-08-07T18:16:06;8.40;;;6.20;;
20036;SDS011;10179;42.640;23.312;2022-08-07T18:18:47;9.43;;;6.35;;
20036;SDS011;10179;42.640;23.312;2022-08-07T18:21:21;7.47;;;6.25;;
20036;SDS011;10179;42.640;23.312;2022-08-07T18:29:23;8.82;;;6.75;;
20036;SDS011;10179;42.640;23.312;2022-08-07T18:43:10;10.32;;;6.45;;
20036;SDS011;10179;42.640;23.312;2022-08-07T18:45:47;9.80;;;6.78;;
20036;SDS011;10179;42.640;23.312;2022-08-07T18:53:44;8.18;;;6.45;;
20036;SDS011;10179;42.640;23.312;2022-08-07T19:07:28;9.68;;;5.90;;
20036;SDS011;10179;42.640;23.312;2022-08-07T19:10:08;8.75;;;6.45;;
20036;SDS011;10179;42.640;23.312;2022-08-07T19:18:18;8.63;;;7.00;;
20036;SDS011;10179;42.640;23.312;2022-08-07T19:23:23;9.52;;;7.32;;
20036;SDS011;10179;42.640;23.312;2022-08-07T19:25:53;8.98;;;7.57;;
20036;SDS011;10179;42.640;23.312;2022-08-07T19:28:21;9.68;;;7.15;;
20036;SDS011;10179;42.640;23.312;2022-08-07T19:30:51;9.23;;;7.10;;
20036;SDS011;10179;42.640;23.312;2022-08-07T19:33:20;10.48;;;7.95;;